Time;durP1;ratioP1;P1;durP2;ratioP2;P2;SDS_P1;SDS_P2;PMS_P1;PMS_P2;Temp;Humidity;BMP_temperature;BMP_pressure;BME280_temperature;BME280_humidity;BME280_pressure;Samples;Min_cycle;Max_cycle;Signal;HPM_P1;HPM_P2
2023/03/13 00:00:49;;;;;;;4.88;2.13;;;6.00;99.90;;;5.37;100.00;96794.34;5051685;28;20029;-38
2023/03/13 00:03:15;;;;;;;7.30;2.30;;;6.10;99.90;;;5.40;100.00;96787.28;5051612;28;20487;-39
2023/03/13 00:05:40;;;;;;;7.05;2.72;;;6.10;99.90;;;5.44;100.00;96786.28;5052678;28;20115;-38
2023/03/13 00:08:06;;;;;;;7.00;2.42;;;6.10;99.90;;;5.50;100.00;96777.41;5055930;28;20033;-39
2023/03/13 00:10:32;;;;;;;10.00;3.08;;;6.20;99.90;;;5.54;100.00;96776.41;5050441;28;20028;-38
2023/03/13 00:12:57;;;;;;;8.52;2.38;;;6.20;99.90;;;5.54;100.00;96766.84;5043323;28;20041;-39
2023/03/13 00:15:23;;;;;;;7.82;2.58;;;6.30;99.90;;;5.64;100.00;96777.91;5046121;28;20385;-39
2023/03/13 00:17:49;;;;;;;16.08;2.83;;;6.30;99.90;;;5.65;100.00;96770.91;5049156;28;20074;-39
2023/03/13 00:20:16;;;;;;;6.03;2.50;;;6.40;99.90;;;5.72;100.00;96777.69;5047506;28;20028;-39
2023/03/13 00:22:42;;;;;;;6.78;2.33;;;6.40;99.90;;;5.76;100.00;96779.34;5041454;28;20037;-39
2023/03/13 00:25:08;;;;;;;8.68;2.63;;;6.40;99.90;;;5.73;100.00;96767.16;5050195;28;20037;-38
2023/03/13 00:27:33;;;;;;;9.15;2.63;;;6.50;99.90;;;5.80;100.00;96767.03;5049930;28;20055;-38
2023/03/13 00:29:59;;;;;;;8.23;2.63;;;6.50;99.90;;;5.87;100.00;96774.66;5041686;28;20691;-38
2023/03/13 00:32:25;;;;;;;8.43;2.40;;;6.50;99.90;;;5.90;100.00;96765.84;5042541;28;20683;-38
2023/03/13 00:34:51;;;;;;;6.25;2.70;;;6.60;99.90;;;5.95;100.00;96763.09;5047238;28;20428;-39
2023/03/13 00:37:16;;;;;;;11.68;2.42;;;6.60;99.90;;;5.95;100.00;96755.25;5051296;28;20423;-38
2023/03/13 00:39:42;;;;;;;7.43;2.20;;;6.60;99.90;;;6.04;100.00;96755.84;5048535;28;20029;-39
2023/03/13 00:42:08;;;;;;;7.22;2.42;;;6.70;99.90;;;6.07;100.00;96757.53;5044950;28;20062;-38
2023/03/13 00:44:33;;;;;;;8.02;2.30;;;6.80;99.90;;;6.09;100.00;96747.88;5049410;28;20059;-39
2023/03/13 00:46:59;;;;;;;7.88;2.33;;;6.80;99.90;;;5.95;100.00;96721.22;5047459;28;20039;-39
2023/03/13 00:49:25;;;;;;;14.50;2.85;;;6.80;99.90;;;6.13;100.00;96746.88;5052849;28;20115;-39
2023/03/13 00:51:50;;;;;;;6.50;2.47;;;6.80;99.90;;;6.16;100.00;96746.81;5045988;28;20040;-39
2023/03/13 00:54:16;;;;;;;9.85;2.65;;;6.80;99.90;;;6.18;100.00;96739.75;5048462;28;20025;-39
2023/03/13 00:56:42;;;;;;;9.25;2.50;;;6.80;99.90;;;6.19;100.00;96741.47;5048120;28;20129;-39
2023/03/13 00:59:07;;;;;;;7.10;2.50;;;6.90;99.90;;;6.18;100.00;96734.50;5048202;28;20033;-38
2023/03/13 01:01:35;;;;;;;6.38;2.40;;;6.80;99.90;;;6.21;100.00;96737.03;5043249;28;20808;-39
2023/03/13 01:04:06;;;;;;;12.45;2.63;;;6.90;99.90;;;6.21;100.00;96731.81;5046663;28;20048;-38
2023/03/13 01:06:35;;;;;;;6.32;2.55;;;6.90;99.90;;;6.21;100.00;96723.97;5045559;28;20483;-39
2023/03/13 01:09:02;;;;;;;10.68;2.92;;;6.90;99.90;;;6.20;100.00;96718.75;5040605;28;20020;-39
2023/03/13 01:11:31;;;;;;;9.32;2.70;;;6.90;99.90;;;6.21;100.00;96716.09;5051971;28;20032;-38
2023/03/13 01:14:01;;;;;;;9.75;3.10;;;6.90;99.90;;;6.20;100.00;96708.28;5047060;28;20044;-39
2023/03/13 01:16:30;;;;;;;10.45;2.88;;;6.90;99.90;;;6.22;100.00;96709.94;5049358;28;20305;-38
2023/03/13 01:19:01;;;;;;;6.85;2.35;;;6.90;99.90;;;6.23;100.00;96698.56;5048155;28;20028;-38
2023/03/13 01:21:27;;;;;;;7.53;2.77;;;6.90;99.90;;;6.24;100.00;96696.81;5052216;28;20033;-38
2023/03/13 01:23:53;;;;;;;6.18;2.63;;;6.90;99.90;;;6.26;100.00;96685.41;5047913;28;20036;-39
2023/03/13 01:26:20;;;;;;;9.60;2.50;;;6.90;99.90;;;6.28;100.00;96686.22;5052012;28;20032;-38
2023/03/13 01:28:47;;;;;;;4.55;2.15;;;6.90;99.90;;;6.25;100.00;96670.59;5047645;28;20060;-39
2023/03/13 01:31:33;;;;;;;9.50;2.33;;;7.00;99.90;;;6.35;100.00;96676.38;5049396;28;20025;-38
2023/03/13 01:34:03;;;;;;;6.57;2.30;;;7.00;99.90;;;6.40;100.00;96679.72;5059339;28;20111;-39
2023/03/13 01:36:29;;;;;;;7.63;2.28;;;7.00;99.90;;;6.44;100.00;96670.00;5045383;28;20028;-39
2023/03/13 01:38:58;;;;;;;9.07;2.35;;;7.10;99.90;;;6.47;100.00;96665.50;5042424;28;20033;-39
2023/03/13 01:41:25;;;;;;;7.95;2.20;;;7.10;99.90;;;6.49;100.00;96658.44;5047957;28;20040;-39
2023/03/13 01:43:51;;;;;;;6.97;2.10;;;7.10;99.90;;;6.54;100.00;96657.47;5048360;28;20075;-39
2023/03/13 01:46:20;;;;;;;7.50;2.47;;;7.10;99.90;;;6.57;100.00;96652.09;5057656;22;20472;-38
2023/03/13 01:49:04;;;;;;;11.85;2.65;;;7.20;99.90;;;6.61;100.00;96651.13;5027512;28;20556;-38
2023/03/13 01:51:47;;;;;;;7.22;2.08;;;7.20;99.90;;;6.64;100.00;96646.63;5013824;28;20544;-38
2023/03/13 01:54:35;;;;;;;7.70;2.38;;;7.30;99.90;;;6.49;100.00;96611.31;5030435;28;20037;-38
2023/03/13 01:57:22;;;;;;;5.47;2.30;;;7.30;99.90;;;6.72;100.00;96633.25;5020541;28;20052;-38
2023/03/13 01:59:59;;;;;;;6.45;2.42;;;7.40;99.90;;;6.77;100.00;96633.97;5020611;28;20040;-39
2023/03/13 02:02:25;;;;;;;5.38;1.85;;;7.40;99.90;;;6.79;100.00;96629.53;5013622;28;22042;-38
2023/03/13 02:04:58;;;;;;;5.68;2.10;;;7.40;99.90;;;6.80;100.00;96612.03;4999068;28;20123;-38
2023/03/13 02:07:36;;;;;;;7.72;2.10;;;7.40;99.90;;;6.64;100.00;96582.88;5022831;28;20476;-38
2023/03/13 02:10:02;;;;;;;8.23;2.15;;;7.50;99.90;;;6.82;100.00;96608.47;5020077;28;20036;-38
2023/03/13 02:12:34;;;;;;;5.25;2.05;;;7.50;99.90;;;6.86;100.00;96603.97;4999922;28;20070;-39
2023/03/13 02:15:05;;;;;;;7.00;1.98;;;7.50;99.90;;;6.91;100.00;96595.94;5016837;28;20444;-39
2023/03/13 02:17:33;;;;;;;6.63;2.10;;;7.50;99.90;;;6.90;100.00;96600.31;5023092;28;20051;-39
2023/03/13 02:19:59;;;;;;;7.22;1.83;;;7.50;99.90;;;6.99;100.00;96601.78;5005629;28;20028;-39
2023/03/13 02:22:57;;;;;;;7.95;2.00;;;7.60;99.90;;;7.00;100.00;96599.09;5029878;28;20493;-39
2023/03/13 02:25:23;;;;;;;8.95;1.70;;;7.60;99.90;;;7.04;100.00;96597.22;5028254;28;20048;-39
2023/03/13 02:27:56;;;;;;;6.60;1.60;;;7.60;99.90;;;7.06;100.00;96595.41;5029103;28;20090;-39
2023/03/13 02:30:22;;;;;;;10.05;2.17;;;7.70;99.90;;;7.06;100.00;96593.63;5030490;28;20032;-39
2023/03/13 02:32:49;;;;;;;6.03;1.85;;;7.70;99.90;;;6.98;100.00;96576.44;5011200;28;20512;-39
2023/03/13 02:35:18;;;;;;;5.85;1.75;;;7.70;99.90;;;7.10;100.00;96583.88;5032291;28;20078;-39
2023/03/13 02:37:53;;;;;;;6.32;1.88;;;7.70;99.90;;;7.07;100.00;96578.78;5032538;28;20327;-39
2023/03/13 02:40:32;;;;;;;6.88;1.65;;;7.70;99.90;;;7.15;100.00;96562.75;5005774;28;20029;-39
2023/03/13 02:43:02;;;;;;;9.00;2.13;;;7.80;99.90;;;7.07;100.00;96555.19;5005983;28;20043;-39
2023/03/13 02:45:28;;;;;;;10.20;1.67;;;7.80;99.90;;;7.22;100.00;96557.22;5025743;28;20208;-39
2023/03/13 02:47:53;;;;;;;6.72;1.48;;;7.80;99.90;;;7.29;100.00;96560.47;5021667;28;20532;-39
2023/03/13 02:50:20;;;;;;;7.32;1.50;;;7.90;99.90;;;7.34;100.00;96557.66;5017984;28;20029;-39
2023/03/13 02:52:56;;;;;;;7.72;1.38;;;7.90;99.90;;;7.37;100.00;96542.66;5001047;28;23702;-39
2023/03/13 02:55:30;;;;;;;5.30;1.63;;;8.00;99.90;;;7.41;100.00;96543.41;5005539;28;20051;-39
2023/03/13 02:57:56;;;;;;;10.07;1.45;;;8.00;99.90;;;7.45;100.00;96539.78;5009897;28;20029;-39
2023/03/13 03:00:25;;;;;;;2.97;1.20;;;8.10;99.90;;;7.43;100.00;96525.88;5024005;28;20786;-39
2023/03/13 03:02:53;;;;;;;8.85;1.52;;;8.10;99.90;;;7.53;100.00;96526.34;5022587;28;20033;-39
2023/03/13 03:05:19;;;;;;;10.00;1.40;;;8.10;99.90;;;7.55;100.00;96522.75;5020235;28;20059;-39
2023/03/13 03:07:44;;;;;;;5.70;1.65;;;8.20;99.90;;;7.60;100.00;96523.41;5000985;28;20665;-39
2023/03/13 03:10:11;;;;;;;6.95;1.65;;;8.20;99.90;;;7.61;100.00;96511.19;5019454;28;20033;-39
2023/03/13 03:12:36;;;;;;;5.55;1.40;;;8.30;99.90;;;7.72;100.00;96510.75;5024316;28;20064;-39
2023/03/13 03:15:03;;;;;;;5.50;1.30;;;8.30;99.90;;;7.80;100.00;96513.91;5018622;28;20492;-39
2023/03/13 03:17:29;;;;;;;5.95;1.40;;;8.40;99.90;;;7.84;100.00;96498.00;5021486;28;20997;-38
2023/03/13 03:19:55;;;;;;;9.65;1.40;;;8.40;99.90;;;7.86;100.00;96495.31;5020893;28;20049;-39
2023/03/13 03:22:21;;;;;;;3.35;1.20;;;8.50;99.90;;;7.87;100.00;96490.91;5023020;28;20041;-39
2023/03/13 03:24:47;;;;;;;5.72;1.20;;;8.50;99.90;;;7.86;100.00;96504.94;5027203;28;20488;-39
2023/03/13 03:27:13;;;;;;;3.13;1.10;;;8.50;99.90;;;7.74;100.00;96483.50;5035102;28;20063;-39
2023/03/13 03:29:39;;;;;;;6.78;1.38;;;8.40;99.90;;;7.76;100.00;96489.56;5021885;28;20029;-39
2023/03/13 03:32:05;;;;;;;8.77;1.55;;;8.40;99.90;;;7.79;100.00;96478.94;5030489;28;20033;-39
2023/03/13 03:34:30;;;;;;;10.85;1.40;;;8.40;99.90;;;7.81;100.00;96489.38;5030657;28;20058;-39
2023/03/13 03:36:57;;;;;;;6.07;1.10;;;8.40;99.90;;;7.75;100.00;96480.00;5029525;28;20032;-39
2023/03/13 03:39:22;;;;;;;8.40;1.38;;;8.40;99.90;;;7.78;100.00;96485.09;5035867;28;20112;-38
2023/03/13 03:41:48;;;;;;;4.07;0.98;;;8.40;99.90;;;7.78;100.00;96479.84;5028986;28;20484;-38
2023/03/13 03:44:14;;;;;;;2.42;0.80;;;8.40;99.90;;;7.78;100.00;96474.59;5028296;28;20036;-38
2023/03/13 03:46:39;;;;;;;4.57;1.05;;;8.40;99.90;;;7.80;100.00;96485.88;5026796;28;20033;-38
2023/03/13 03:49:05;;;;;;;1.67;0.90;;;8.40;99.90;;;7.80;100.00;96474.53;5026418;28;20043;-38
2023/03/13 03:51:31;;;;;;;5.53;1.10;;;8.40;99.90;;;7.83;100.00;96480.50;5028406;28;20622;-38
2023/03/13 03:53:56;;;;;;;4.10;1.27;;;8.40;99.90;;;7.88;100.00;96485.59;5020675;28;20492;-38
2023/03/13 03:56:22;;;;;;;2.03;0.90;;;8.50;99.90;;;7.94;100.00;96480.06;5034519;28;20029;-38
2023/03/13 03:58:48;;;;;;;2.53;0.88;;;8.50;99.90;;;7.97;100.00;96484.38;5029639;28;20029;-38
2023/03/13 04:01:13;;;;;;;2.35;1.10;;;8.60;99.90;;;8.02;100.00;96485.00;5028418;28;20029;-38
2023/03/13 04:03:39;;;;;;;3.97;0.90;;;8.60;99.90;;;8.10;100.00;96490.81;5021173;28;20029;-38
2023/03/13 04:06:06;;;;;;;2.63;0.93;;;8.70;99.90;;;8.21;100.00;96485.09;5029370;28;20772;-38
2023/03/13 04:08:31;;;;;;;2.67;0.88;;;8.80;99.90;;;8.35;100.00;96481.91;5032419;28;20029;-39
2023/03/13 04:11:00;;;;;;;3.28;0.75;;;8.90;99.90;;;8.56;100.00;96480.13;5023529;28;20025;-38
2023/03/13 04:13:26;;;;;;;2.70;0.85;;;9.10;99.90;;;8.70;100.00;96471.66;5020460;28;20025;-38
2023/03/13 04:15:52;;;;;;;1.85;0.85;;;9.20;99.90;;;8.87;100.00;96444.63;5020915;28;20557;-38
2023/03/13 04:18:18;;;;;;;1.98;0.85;;;9.40;99.90;;;9.03;100.00;96463.19;5032486;28;20044;-38
2023/03/13 04:20:44;;;;;;;1.75;0.50;;;9.50;99.90;;;9.00;100.00;96435.22;5027930;28;20119;-39
2023/03/13 04:23:09;;;;;;;1.75;0.60;;;9.70;99.90;;;9.30;100.00;96458.41;5030409;28;20028;-39
2023/03/13 04:25:35;;;;;;;2.00;0.70;;;9.80;99.90;;;9.44;100.00;96449.84;5031343;28;20028;-39
2023/03/13 04:28:01;;;;;;;4.10;0.70;;;9.90;99.90;;;9.56;100.00;96451.91;5025902;28;20024;-39
2023/03/13 04:30:27;;;;;;;3.53;0.80;;;10.00;99.90;;;9.63;100.00;96460.38;5030457;28;20017;-38
2023/03/13 04:32:53;;;;;;;2.03;0.60;;;10.10;99.90;;;9.79;100.00;96460.47;5026989;28;20033;-39
2023/03/13 04:35:18;;;;;;;4.35;0.70;;;10.20;99.90;;;9.87;100.00;96453.03;5006802;28;20048;-39
2023/03/13 04:37:44;;;;;;;2.28;0.73;;;10.30;99.90;;;9.93;100.00;96447.47;5024540;28;20067;-39
2023/03/13 04:40:12;;;;;;;1.05;0.50;;;10.40;99.90;;;10.00;100.00;96445.41;5024484;28;20480;-39
2023/03/13 04:42:38;;;;;;;0.88;0.50;;;10.50;99.90;;;10.08;100.00;96443.22;5026118;28;20064;-38
2023/03/13 04:45:05;;;;;;;1.27;0.57;;;10.50;99.90;;;10.06;100.00;96455.63;5025590;28;20068;-39
2023/03/13 04:47:30;;;;;;;0.85;0.50;;;10.60;99.90;;;10.06;100.00;96450.34;5024368;28;20152;-39
2023/03/13 04:49:56;;;;;;;1.58;0.60;;;10.60;99.90;;;10.07;100.00;96445.00;5021825;28;20036;-40
2023/03/13 04:52:22;;;;;;;2.95;0.40;;;10.60;99.90;;;10.13;100.00;96446.47;5021182;28;20545;-39
2023/03/13 04:54:49;;;;;;;2.33;0.77;;;10.60;99.90;;;10.13;100.00;96452.59;5021783;28;20048;-39
2023/03/13 04:57:15;;;;;;;2.15;0.70;;;10.60;99.90;;;10.15;100.00;96443.78;5028035;28;20408;-39
2023/03/13 04:59:41;;;;;;;1.05;0.50;;;10.70;99.90;;;10.16;100.00;96459.50;5030690;28;20279;-39
2023/03/13 05:02:12;;;;;;;1.30;0.50;;;10.70;99.90;;;10.15;100.00;96443.78;5025110;28;20041;-39
2023/03/13 05:04:37;;;;;;;1.65;0.70;;;10.70;99.90;;;10.14;100.00;96442.94;5012783;28;20078;-39
2023/03/13 05:07:03;;;;;;;1.50;0.57;;;10.70;99.90;;;10.15;100.00;96452.53;5020979;28;20545;-39
2023/03/13 05:09:29;;;;;;;1.23;0.60;;;10.70;99.90;;;10.17;100.00;96453.28;5022426;28;20033;-40
2023/03/13 05:11:55;;;;;;;0.93;0.50;;;10.70;99.90;;;10.19;100.00;96442.69;5018639;28;20392;-39
2023/03/13 05:14:20;;;;;;;0.52;0.45;;;10.70;99.90;;;10.18;100.00;96441.00;5019730;28;20108;-39
2023/03/13 05:16:46;;;;;;;2.60;0.60;;;10.70;99.90;;;10.15;100.00;96435.88;4997304;28;20439;-39
2023/03/13 05:19:12;;;;;;;1.15;0.57;;;10.70;99.90;;;10.12;100.00;96437.75;5001461;28;20035;-40
2023/03/13 05:21:37;;;;;;;4.70;0.65;;;10.60;99.90;;;10.18;100.00;96441.84;5014968;28;20045;-39
2023/03/13 05:24:04;;;;;;;2.92;0.52;;;10.70;99.90;;;10.16;100.00;96445.47;5022494;28;20108;-39
2023/03/13 05:26:29;;;;;;;1.58;0.55;;;10.70;99.90;;;10.23;100.00;96453.00;5004846;28;20029;-39
2023/03/13 05:28:55;;;;;;;0.38;0.38;;;10.70;99.90;;;10.22;100.00;96463.63;5021293;28;20388;-39
2023/03/13 05:31:21;;;;;;;0.77;0.50;;;10.70;99.90;;;10.19;100.00;96461.13;5023217;28;20119;-39
2023/03/13 05:33:46;;;;;;;0.50;0.50;;;10.70;99.90;;;10.17;100.00;96450.66;5013980;28;20152;-39
2023/03/13 05:36:12;;;;;;;1.25;0.60;;;10.70;99.90;;;10.15;100.00;96443.78;5022804;28;20033;-39
2023/03/13 05:38:38;;;;;;;1.02;0.45;;;10.70;99.90;;;10.16;100.00;96441.06;5019040;28;20100;-39
2023/03/13 05:41:03;;;;;;;4.07;0.80;;;10.60;99.90;;;10.15;100.00;96426.19;5022962;28;20037;-39
2023/03/13 05:43:29;;;;;;;0.80;0.50;;;10.70;99.90;;;10.21;100.00;96428.53;5026567;28;20043;-39
2023/03/13 05:45:55;;;;;;;1.02;0.60;;;10.70;99.90;;;10.22;100.00;96421.47;5028723;28;20041;-39
2023/03/13 05:48:21;;;;;;;0.85;0.65;;;10.70;99.90;;;10.21;100.00;96439.06;5031469;28;20500;-39
2023/03/13 05:50:46;;;;;;;0.77;0.50;;;10.70;99.90;;;10.24;100.00;96430.13;5029945;28;20029;-39
2023/03/13 05:53:12;;;;;;;0.35;0.30;;;10.70;99.90;;;10.26;100.00;96423.84;5032054;28;20037;-39
2023/03/13 05:55:38;;;;;;;0.40;0.40;;;10.80;99.90;;;10.30;100.00;96441.22;5024203;28;20381;-39
2023/03/13 05:58:04;;;;;;;1.35;0.52;;;10.80;99.90;;;10.38;100.00;96438.22;5028151;28;20037;-39
2023/03/13 06:00:30;;;;;;;0.77;0.40;;;10.80;99.90;;;10.44;100.00;96431.78;5023073;28;20029;-40
2023/03/13 06:02:55;;;;;;;2.15;0.50;;;10.90;99.90;;;10.39;100.00;96420.59;5028968;28;20044;-39
2023/03/13 06:05:21;;;;;;;1.33;0.52;;;10.90;99.90;;;10.40;100.00;96419.69;5022543;28;20036;-39
2023/03/13 06:07:49;;;;;;;2.33;0.50;;;10.90;99.90;;;10.40;100.00;96433.72;5025540;28;20214;-39
2023/03/13 06:10:15;;;;;;;2.33;0.70;;;10.90;99.90;;;10.45;100.00;96429.06;5030403;28;20021;-39
2023/03/13 06:12:41;;;;;;;0.77;0.40;;;10.90;99.90;;;10.49;100.00;96429.75;5024021;28;20875;-39
2023/03/13 06:15:08;;;;;;;1.27;0.40;;;11.00;99.90;;;10.52;100.00;96441.94;5028542;28;20033;-40
2023/03/13 06:17:35;;;;;;;0.40;0.40;;;11.00;99.90;;;10.36;100.00;96407.63;5017380;28;20036;-39
2023/03/13 06:20:02;;;;;;;1.08;0.40;;;11.10;99.90;;;10.46;100.00;96420.22;5007040;28;20389;-40
2023/03/13 06:22:29;;;;;;;0.32;0.30;;;11.10;99.90;;;10.67;100.00;96443.75;5023272;28;20045;-39
2023/03/13 06:24:55;;;;;;;1.00;0.40;;;11.10;99.90;;;10.71;100.00;96453.19;5022119;28;20492;-39
2023/03/13 06:27:21;;;;;;;0.63;0.50;;;11.20;99.90;;;10.80;100.00;96449.22;5023702;28;20469;-39
2023/03/13 06:29:47;;;;;;;3.13;0.40;;;11.30;99.90;;;10.91;100.00;96459.22;5024204;28;20033;-39
2023/03/13 06:32:12;;;;;;;0.85;0.40;;;11.40;99.90;;;11.04;100.00;96447.09;5018817;28;20037;-39
2023/03/13 06:34:38;;;;;;;0.50;0.30;;;11.50;99.90;;;11.08;100.00;96448.63;5021968;28;20485;-39
2023/03/13 06:37:04;;;;;;;1.08;0.35;;;11.60;99.90;;;11.16;100.00;96441.16;5011888;28;20122;-39
2023/03/13 06:39:29;;;;;;;0.85;0.52;;;11.60;99.90;;;11.17;100.00;96429.63;5017507;28;20162;-40
2023/03/13 06:41:55;;;;;;;1.27;0.40;;;11.70;99.90;;;11.31;100.00;96436.81;5008526;28;20499;-39
2023/03/13 06:44:21;;;;;;;1.63;0.40;;;11.80;99.90;;;11.38;100.00;96446.09;5020624;28;20040;-39
2023/03/13 06:46:46;;;;;;;1.08;0.50;;;11.90;99.90;;;11.43;100.00;96433.50;5023085;28;20195;-39
2023/03/13 06:49:12;;;;;;;1.17;0.40;;;11.90;99.90;;;11.40;100.00;96433.66;5022046;28;20667;-39
2023/03/13 06:51:38;;;;;;;1.02;0.40;;;12.00;99.90;;;11.43;100.00;96440.53;5021999;28;20065;-39
2023/03/13 06:54:04;;;;;;;2.38;0.50;;;12.00;99.90;;;11.45;100.00;96451.88;5010785;28;20044;-39
2023/03/13 06:56:29;;;;;;;0.85;0.40;;;12.00;99.90;;;11.45;100.00;96454.53;5019401;28;20441;-39
2023/03/13 06:58:55;;;;;;;2.50;0.80;;;12.00;99.90;;;11.23;100.00;96425.81;5020500;28;20033;-39
2023/03/13 07:01:21;;;;;;;0.35;0.30;;;11.90;99.90;;;11.37;100.00;96459.38;5011795;28;20392;-40
2023/03/13 07:03:48;;;;;;;0.40;0.30;;;11.90;99.90;;;11.31;100.00;96462.34;5032932;28;20059;-37
2023/03/13 07:06:15;;;;;;;0.77;0.30;;;11.80;99.90;;;11.36;100.00;96462.94;5026614;28;20061;-39
2023/03/13 07:08:42;;;;;;;0.68;0.50;;;11.80;99.90;;;11.36;100.00;96462.94;5021647;28;20029;-39
2023/03/13 07:11:11;;;;;;;0.82;0.47;;;11.90;99.90;;;11.37;100.00;96460.22;5021541;28;20037;-39
2023/03/13 07:13:37;;;;;;;0.98;0.40;;;11.90;99.90;;;11.42;100.00;96457.31;5023981;28;20029;-39
2023/03/13 07:16:06;;;;;;;1.38;0.45;;;11.90;99.90;;;11.50;100.00;96465.66;5026288;28;20052;-39
2023/03/13 07:18:33;;;;;;;1.88;0.40;;;11.90;99.90;;;11.40;100.00;96448.66;5029270;28;20757;-39
2023/03/13 07:21:04;;;;;;;1.02;0.50;;;12.00;99.90;;;11.51;100.00;96464.72;5024884;28;20469;-39
2023/03/13 07:23:30;;;;;;;1.70;0.40;;;12.00;99.90;;;11.51;100.00;96464.72;5026913;28;20043;-39
2023/03/13 07:26:02;;;;;;;0.77;0.30;;;12.00;99.90;;;11.44;100.00;96444.88;5027509;28;20570;-39
2023/03/13 07:28:29;;;;;;;0.63;0.40;;;12.00;99.90;;;11.39;100.00;96439.00;5026508;28;20028;-39
2023/03/13 07:31:05;;;;;;;1.65;0.47;;;12.00;99.90;;;11.49;100.00;96449.94;5028885;28;20064;-39
2023/03/13 07:33:31;;;;;;;2.30;0.50;;;12.00;99.90;;;11.46;100.00;96435.09;5025779;28;20503;-39
2023/03/13 07:35:57;;;;;;;1.55;0.82;;;12.00;99.90;;;11.49;100.00;96442.00;5033651;28;20789;-38
2023/03/13 07:38:23;;;;;;;0.88;0.50;;;12.00;99.90;;;11.48;100.00;96435.84;5025342;28;20468;-39
2023/03/13 07:40:54;;;;;;;0.70;0.40;;;12.00;99.90;;;11.50;100.00;96441.06;5026252;28;20064;-39
2023/03/13 07:43:21;;;;;;;0.88;0.50;;;12.00;99.90;;;11.50;100.00;96433.13;5018202;28;20037;-39
2023/03/13 07:46:02;;;;;;;1.23;0.30;;;12.00;99.90;;;11.51;100.00;96435.69;5036940;23;20038;-40
2023/03/13 07:48:34;;;;;;;1.08;0.40;;;12.00;99.90;;;11.58;100.00;96433.56;5011336;28;20136;-40
2023/03/13 07:51:01;;;;;;;0.90;0.40;;;12.10;99.90;;;11.64;100.00;96431.41;4996392;28;20033;-40
2023/03/13 07:53:27;;;;;;;1.17;0.50;;;12.10;99.90;;;11.63;100.00;96428.88;5009534;28;20040;-39
2023/03/13 07:56:10;;;;;;;0.47;0.43;;;12.10;99.90;;;11.67;100.00;96421.63;4997874;28;20732;-40
2023/03/13 07:58:38;;;;;;;1.25;0.70;;;12.20;99.90;;;11.75;100.00;96422.03;5012286;28;20131;-39
2023/03/13 08:01:21;;;;;;;0.77;0.50;;;12.30;99.90;;;11.85;100.00;96407.38;5019467;28;20067;-39
2023/03/13 08:03:49;;;;;;;1.05;0.60;;;12.30;99.90;;;11.94;100.00;96398.94;5022563;28;20033;-39
2023/03/13 08:06:22;;;;;;;0.68;0.50;;;12.40;99.90;;;12.09;100.00;96391.03;5029222;28;20469;-39
2023/03/13 08:08:48;;;;;;;0.80;0.50;;;12.60;99.90;;;12.22;100.00;96384.94;5010134;28;20099;-37
2023/03/13 08:11:18;;;;;;;2.92;0.68;;;12.70;99.90;;;12.29;100.00;96368.69;5029192;28;20080;-41
2023/03/13 08:13:44;;;;;;;2.35;0.45;;;12.90;99.90;;;12.54;100.00;96383.94;5020514;28;20115;-38
2023/03/13 08:16:11;;;;;;;1.73;0.68;;;13.00;99.90;;;12.69;100.00;96364.50;5027194;28;20455;-41
2023/03/13 08:18:40;;;;;;;0.70;0.35;;;13.20;99.90;;;12.85;100.00;96374.09;5028646;28;20037;-41
2023/03/13 08:21:12;;;;;;;0.50;0.40;;;13.30;99.90;;;13.02;100.00;96362.47;5012933;28;20037;-40
2023/03/13 08:23:38;;;;;;;1.00;0.55;;;13.50;99.90;;;13.23;100.00;96368.22;5024368;28;20072;-39
2023/03/13 08:26:16;;;;;;;1.67;0.50;;;13.70;99.90;;;13.35;100.00;96372.72;5030397;28;20129;-39
2023/03/13 08:28:45;;;;;;;2.03;0.60;;;13.80;99.90;;;13.43;100.00;96356.34;5024326;28;20037;-39
2023/03/13 08:31:14;;;;;;;1.13;0.60;;;13.90;99.90;;;13.51;100.00;96360.22;5025948;28;20064;-39
2023/03/13 08:33:43;;;;;;;0.88;0.50;;;14.00;99.90;;;13.58;100.00;96378.34;5029548;28;20017;-39
2023/03/13 08:36:24;;;;;;;0.80;0.52;;;14.00;99.90;;;13.57;100.00;96390.75;5034845;28;20123;-39
2023/03/13 08:39:19;;;;;;;2.55;0.68;;;14.10;99.90;;;13.62;100.00;96372.75;5031092;28;20037;-39
2023/03/13 08:41:45;;;;;;;0.70;0.47;;;14.10;99.90;;;13.61;100.00;96367.56;5024735;28;20576;-39
2023/03/13 08:44:14;;;;;;;1.23;0.60;;;14.10;99.90;;;13.68;100.00;96363.53;5031038;28;20183;-39
2023/03/13 08:46:40;;;;;;;1.10;0.60;;;14.10;99.90;;;13.67;100.00;96369.78;5030319;28;20017;-38
2023/03/13 08:49:07;;;;;;;0.90;0.60;;;14.20;99.90;;;13.71;100.00;96373.91;5007372;28;20094;-38
2023/03/13 08:51:34;;;;;;;1.45;0.60;;;14.20;99.90;;;13.71;100.00;96366.84;5015842;28;20021;-38
2023/03/13 08:54:02;;;;;;;1.30;0.70;;;14.20;99.90;;;13.81;100.00;96385.63;5027699;28;20033;-39
2023/03/13 08:56:29;;;;;;;0.63;0.52;;;14.30;99.90;;;13.76;100.00;96382.41;5029095;28;20044;-38
2023/03/13 08:59:01;;;;;;;0.70;0.52;;;14.30;99.90;;;13.78;100.00;96383.16;5031372;28;20527;-39
2023/03/13 09:01:30;;;;;;;2.10;0.93;;;14.40;99.90;;;13.92;100.00;96385.75;5027964;28;20044;-39
2023/03/13 09:03:55;;;;;;;1.50;0.60;;;14.40;99.90;;;14.01;100.00;96372.84;5021001;28;20291;-39
2023/03/13 09:06:21;;;;;;;1.85;0.70;;;14.50;99.90;;;14.17;100.00;96377.97;5026347;28;20251;-38
2023/03/13 09:08:47;;;;;;;1.92;0.70;;;14.60;99.90;;;14.22;100.00;96370.56;5021145;28;20515;-39
2023/03/13 09:11:16;;;;;;;1.52;0.73;;;14.70;99.90;;;14.31;100.00;96386.69;5022856;28;20111;-39
2023/03/13 09:13:48;;;;;;;3.13;0.80;;;14.80;99.90;;;14.37;100.00;96376.59;5020516;28;20029;-39
2023/03/13 09:16:26;;;;;;;1.67;0.90;;;14.90;99.90;;;14.33;100.00;96381.28;5010274;28;20374;-39
2023/03/13 09:18:53;;;;;;;2.05;0.70;;;14.90;99.90;;;14.38;100.00;96373.84;5026189;28;20094;-39
2023/03/13 09:21:23;;;;;;;1.30;0.70;;;14.90;99.90;;;14.25;100.00;96368.53;5024899;28;20086;-39
2023/03/13 09:23:49;;;;;;;1.25;0.68;;;14.80;99.90;;;14.32;100.00;96374.28;5020894;28;20679;-39
2023/03/13 09:26:18;;;;;;;1.70;0.82;;;14.80;99.90;;;14.40;100.00;96366.63;5014000;28;20049;-39
2023/03/13 09:28:44;;;;;;;3.17;0.80;;;15.00;99.90;;;14.45;99.89;96359.22;5019671;28;20116;-39
2023/03/13 09:31:25;;;;;;;1.40;0.85;;;15.10;99.90;;;14.57;100.00;96376.09;5016403;28;20125;-39
2023/03/13 09:33:51;;;;;;;1.55;0.82;;;15.20;99.90;;;14.72;99.75;96373.38;5017231;28;20477;-39
2023/03/13 09:36:19;;;;;;;1.67;0.73;;;15.20;99.90;;;14.70;98.24;96400.00;5025793;28;20503;-39
2023/03/13 09:38:45;;;;;;;0.95;0.70;;;15.30;99.90;;;14.65;97.23;96383.56;5015619;28;20033;-39
2023/03/13 09:41:21;;;;;;;2.80;0.65;;;15.30;99.90;;;14.65;98.93;96392.34;5016308;28;20032;-39
2023/03/13 09:44:09;;;;;;;0.95;0.70;;;15.20;99.90;;;14.54;98.16;96397.53;5002149;28;20119;-39
2023/03/13 09:47:23;;;;;;;1.20;0.90;;;15.10;99.90;;;14.45;100.00;96387.56;5025611;28;20124;-39
2023/03/13 09:50:04;;;;;;;1.35;0.60;;;15.00;99.90;;;14.59;97.33;96397.22;4990283;28;20043;-39
2023/03/13 09:52:42;;;;;;;1.25;0.70;;;15.00;99.90;;;14.66;98.18;96387.88;5011204;28;20044;-39
2023/03/13 09:55:20;;;;;;;2.00;0.82;;;15.20;99.90;;;14.87;95.73;96388.19;5016036;28;20810;-38
2023/03/13 09:58:19;;;;;;;0.82;0.70;;;15.40;99.90;;;14.93;95.34;96385.13;4996171;28;20036;-38
2023/03/13 10:00:56;;;;;;;2.15;0.80;;;15.50;99.90;;;15.06;94.55;96377.13;5000436;28;20037;-39
2023/03/13 10:03:34;;;;;;;3.72;0.90;;;15.60;99.90;;;15.24;92.22;96377.63;4977876;28;20163;-39
2023/03/13 10:06:22;;;;;;;4.88;0.80;;;15.70;99.90;;;15.23;91.18;96375.91;5000255;28;20047;-39
2023/03/13 10:08:47;;;;;;;5.97;1.20;;;15.70;99.90;;;15.14;89.89;96389.84;5006929;28;20534;-39
2023/03/13 10:11:27;;;;;;;2.13;1.00;;;15.60;99.90;;;15.05;94.55;96370.97;5023364;28;20036;-39
2023/03/13 10:14:02;;;;;;;1.25;0.77;;;15.50;99.90;;;14.96;92.14;96362.81;5004923;28;20033;-38
2023/03/13 10:17:19;;;;;;;2.53;1.20;;;15.30;99.90;;;14.78;96.06;96344.56;5015936;28;20334;-38
2023/03/13 10:19:54;;;;;;;2.65;1.30;;;15.20;99.90;;;14.79;98.39;96348.94;4970038;28;20044;-39
2023/03/13 10:22:25;;;;;;;4.10;1.10;;;15.20;99.90;;;14.82;95.00;96346.06;5000191;28;20044;-39
2023/03/13 10:25:40;;;;;;;2.03;1.10;;;15.20;99.90;;;14.86;90.34;96317.50;5000896;28;20068;-39